Time;durP1;ratioP1;P1;durP2;ratioP2;P2;SDS_P1;SDS_P2;PMS_P1;PMS_P2;Temp;Humidity;BMP_temperature;BMP_pressure;BME280_temperature;BME280_humidity;BME280_pressure;Samples;Min_cycle;Max_cycle;Signal;HPM_P1;HPM_P2
2022/07/17 00:00:21;;;;;;;7.55;3.80;;;15.00;99.90;;;;;;5057328;28;19931;-50
2022/07/17 00:02:48;;;;;;;;;;;15.00;99.90;;;;;;5038714;28;20110;-52
2022/07/17 00:05:16;;;;;;;5.25;3.65;;;14.90;99.90;;;;;;5057187;28;20014;-51
2022/07/17 00:07:43;;;;;;;4.75;3.17;;;14.90;99.90;;;;;;5057053;28;20067;-52
2022/07/17 00:10:10;;;;;;;7.90;3.63;;;14.80;99.90;;;;;;5044105;28;20049;-52
2022/07/17 00:12:37;;;;;;;;;;;14.80;99.90;;;;;;5051046;28;20505;-52
2022/07/17 00:15:04;;;;;;;3.45;2.80;;;14.70;99.90;;;;;;5037968;28;19931;-51
2022/07/17 00:17:31;;;;;;;4.00;3.00;;;14.70;99.90;;;;;;5054745;28;20040;-52
2022/07/17 00:19:58;;;;;;;;;;;14.70;99.90;;;;;;5057702;28;20041;-51
2022/07/17 00:22:25;;;;;;;5.60;3.17;;;14.70;99.90;;;;;;5039177;28;19924;-53
2022/07/17 00:24:51;;;;;;;;;;;14.70;99.90;;;;;;5056647;28;20044;-52
2022/07/17 00:27:18;;;;;;;6.03;3.28;;;14.60;99.90;;;;;;5057518;28;19966;-53
2022/07/17 00:29:45;;;;;;;;;;;14.60;99.90;;;;;;5031980;28;20049;-52
2022/07/17 00:32:12;;;;;;;4.20;3.00;;;14.60;99.90;;;;;;5036986;28;20035;-53
2022/07/17 00:34:38;;;;;;;;;;;14.60;99.90;;;;;;5036859;28;20040;-52
2022/07/17 00:37:05;;;;;;;4.22;3.30;;;14.50;99.90;;;;;;5037154;28;19960;-53
2022/07/17 00:39:34;;;;;;;4.85;3.28;;;14.50;99.90;;;;;;5036696;28;20065;-52
2022/07/17 00:42:01;;;;;;;5.72;3.35;;;14.50;99.90;;;;;;5036739;28;20095;-50
2022/07/17 00:44:27;;;;;;;;;;;14.50;99.90;;;;;;5037345;28;20124;-53
2022/07/17 00:46:54;;;;;;;5.45;3.67;;;14.50;99.90;;;;;;5040128;28;19924;-52
2022/07/17 00:49:21;;;;;;;4.88;3.25;;;14.50;99.90;;;;;;5054842;28;20048;-53
2022/07/17 00:51:48;;;;;;;3.63;3.25;;;14.40;99.90;;;;;;5056410;28;20064;-55
2022/07/17 00:54:17;;;;;;;3.90;2.88;;;14.40;99.90;;;;;;5056315;28;20048;-53
2022/07/17 00:56:47;;;;;;;4.22;3.03;;;14.40;99.90;;;;;;5055668;28;20033;-52
2022/07/17 00:59:15;;;;;;;4.13;2.78;;;14.30;99.90;;;;;;5056653;28;20040;-52
2022/07/17 01:01:42;;;;;;;6.40;3.35;;;14.30;99.90;;;;;;5056643;28;20056;-52
2022/07/17 01:04:10;;;;;;;4.35;3.45;;;14.20;99.90;;;;;;5055824;28;20060;-52
2022/07/17 01:06:37;;;;;;;3.83;2.88;;;14.20;99.90;;;;;;5056432;28;20094;-50
2022/07/17 01:09:04;;;;;;;4.22;3.17;;;14.20;99.90;;;;;;5050787;28;20045;-52
2022/07/17 01:11:31;;;;;;;13.27;3.90;;;14.10;99.90;;;;;;5044191;28;20966;-52
2022/07/17 01:13:58;;;;;;;6.20;3.60;;;14.10;99.90;;;;;;5042246;28;20684;-49
2022/07/17 01:16:25;;;;;;;;;;;14.10;99.90;;;;;;5040231;28;20524;-50
2022/07/17 01:18:53;;;;;;;4.50;3.55;;;14.00;99.90;;;;;;5053732;28;20024;-51
2022/07/17 01:21:20;;;;;;;6.78;3.00;;;13.90;99.90;;;;;;5056200;28;20056;-52
2022/07/17 01:23:49;;;;;;;5.65;3.75;;;13.90;99.90;;;;;;5037671;28;20054;-51
2022/07/17 01:26:15;;;;;;;;;;;13.90;99.90;;;;;;5055485;28;20041;-52
2022/07/17 01:28:42;;;;;;;7.80;3.85;;;13.90;99.90;;;;;;5056171;28;19924;-53
2022/07/17 01:31:09;;;;;;;5.25;2.90;;;13.80;99.90;;;;;;5037162;28;20052;-52
2022/07/17 01:33:37;;;;;;;4.78;3.22;;;13.80;99.90;;;;;;5035871;28;20048;-51
2022/07/17 01:36:04;;;;;;;6.90;3.47;;;13.70;99.90;;;;;;5035405;28;20037;-52
2022/07/17 01:38:30;;;;;;;;;;;13.60;99.90;;;;;;5036794;28;20052;-53
2022/07/17 01:40:57;;;;;;;3.30;2.85;;;13.60;99.90;;;;;;5034440;28;19929;-53
2022/07/17 01:43:24;;;;;;;5.10;3.17;;;13.50;99.90;;;;;;5034945;28;20124;-52
2022/07/17 01:45:51;;;;;;;4.40;3.60;;;13.50;99.90;;;;;;5035290;28;20036;-53
2022/07/17 01:48:27;;;;;;;;;;;13.40;99.90;;;;;;5051014;28;20071;-53
2022/07/17 01:50:54;;;;;;;4.25;3.25;;;13.40;99.90;;;;;;5037486;28;20224;-51
2022/07/17 01:53:21;;;;;;;4.68;3.20;;;13.40;99.90;;;;;;5054375;28;20074;-52
2022/07/17 01:55:48;;;;;;;5.55;2.83;;;13.40;99.90;;;;;;5055046;28;20048;-51
2022/07/17 01:58:16;;;;;;;4.20;3.08;;;13.40;99.90;;;;;;5054650;28;20493;-50
2022/07/17 02:00:43;;;;;;;6.20;2.90;;;13.40;99.90;;;;;;5054956;28;20538;-52
2022/07/17 02:03:10;;;;;;;4.30;2.67;;;13.30;99.90;;;;;;5055050;28;20064;-53
2022/07/17 02:05:37;;;;;;;4.65;3.03;;;13.30;99.90;;;;;;5055131;28;20052;-52
2022/07/17 02:08:04;;;;;;;6.25;3.08;;;13.30;99.90;;;;;;5055466;28;20699;-52
2022/07/17 02:10:31;;;;;;;5.43;3.05;;;13.30;99.90;;;;;;5038648;28;20967;-51
2022/07/17 02:12:58;;;;;;;;;;;13.30;99.90;;;;;;5050453;28;20665;-52
2022/07/17 02:15:25;;;;;;;4.20;2.65;;;13.30;99.90;;;;;;5032976;28;19925;-53
2022/07/17 02:17:52;;;;;;;3.47;2.63;;;13.30;99.90;;;;;;5038735;28;20029;-52
2022/07/17 02:20:19;;;;;;;6.80;3.30;;;13.30;99.90;;;;;;5035231;28;20125;-52
2022/07/17 02:22:46;;;;;;;6.50;4.00;;;13.20;99.90;;;;;;5037010;28;20063;-53
2022/07/17 02:25:13;;;;;;;;;;;13.10;99.90;;;;;;5055375;28;20048;-52
2022/07/17 02:27:41;;;;;;;7.18;3.08;;;13.10;99.90;;;;;;5054783;28;20460;-52
2022/07/17 02:30:11;;;;;;;3.45;2.60;;;13.10;99.90;;;;;;5037278;28;20056;-51
2022/07/17 02:32:38;;;;;;;3.53;2.80;;;13.00;99.90;;;;;;5054713;28;20123;-50
2022/07/17 02:35:06;;;;;;;3.83;2.70;;;13.00;99.90;;;;;;5036367;28;20037;-50
2022/07/17 02:37:33;;;;;;;3.80;3.15;;;12.90;99.90;;;;;;5054374;28;20047;-52
2022/07/17 02:40:00;;;;;;;4.35;3.72;;;12.90;99.90;;;;;;5054705;28;20068;-52
2022/07/17 02:42:28;;;;;;;;;;;12.80;99.90;;;;;;5036948;28;20056;-52
2022/07/17 02:44:55;;;;;;;4.65;2.95;;;12.80;99.90;;;;;;5054389;28;19932;-53
2022/07/17 02:47:30;;;;;;;5.07;3.33;;;12.80;99.90;;;;;;5053409;28;20071;-52
2022/07/17 02:50:01;;;;;;;4.30;3.10;;;12.70;99.90;;;;;;5054057;28;20040;-51
2022/07/17 02:52:28;;;;;;;4.22;3.40;;;12.80;99.90;;;;;;5054928;28;20040;-52
2022/07/17 02:54:54;;;;;;;6.50;2.50;;;12.70;99.90;;;;;;5053683;28;20079;-50
2022/07/17 02:57:21;;;;;;;4.40;2.90;;;12.70;99.90;;;;;;5053238;28;20052;-49
2022/07/17 02:59:48;;;;;;;5.03;2.83;;;12.70;99.90;;;;;;5054353;28;20041;-52
2022/07/17 03:02:15;;;;;;;8.85;3.67;;;12.70;99.90;;;;;;5038658;28;20719;-52
2022/07/17 03:04:41;;;;;;;;;;;12.70;99.90;;;;;;5036142;28;20044;-49
2022/07/17 03:07:08;;;;;;;4.28;2.92;;;12.70;99.90;;;;;;5054700;28;19932;-52
2022/07/17 03:09:35;;;;;;;;;;;12.70;99.90;;;;;;5046791;28;20048;-49
2022/07/17 03:12:02;;;;;;;7.90;3.03;;;12.70;99.90;;;;;;5049537;28;19936;-52
2022/07/17 03:14:29;;;;;;;5.07;3.00;;;12.70;99.90;;;;;;5038969;28;20720;-50
2022/07/17 03:16:55;;;;;;;;;;;12.70;99.90;;;;;;5038629;28;20043;-54
2022/07/17 03:19:23;;;;;;;6.60;3.87;;;12.70;99.90;;;;;;5030903;28;20339;-51
2022/07/17 03:21:50;;;;;;;6.45;3.40;;;12.60;99.90;;;;;;5057346;28;20501;-50
2022/07/17 03:24:16;;;;;;;5.03;2.97;;;12.60;99.90;;;;;;5057681;28;20745;-55
2022/07/17 03:26:44;;;;;;;3.55;3.20;;;12.60;99.90;;;;;;5039947;28;20040;-53
2022/07/17 03:29:11;;;;;;;5.20;3.08;;;12.50;99.90;;;;;;5057726;28;20133;-51
2022/07/17 03:31:38;;;;;;;4.88;2.75;;;12.50;99.90;;;;;;5058327;28;20052;-52
2022/07/17 03:34:05;;;;;;;5.57;3.05;;;12.50;99.90;;;;;;5057264;28;20037;-52
2022/07/17 03:36:32;;;;;;;;;;;12.50;99.90;;;;;;5041145;28;20047;-52
2022/07/17 03:38:59;;;;;;;4.72;3.30;;;12.40;99.90;;;;;;5039276;28;19931;-53
2022/07/17 03:41:26;;;;;;;7.43;3.80;;;12.40;99.90;;;;;;5057955;28;20041;-53
2022/07/17 03:43:53;;;;;;;3.72;3.28;;;12.40;99.90;;;;;;5057271;28;20403;-50
2022/07/17 03:46:20;;;;;;;4.38;3.40;;;12.40;99.90;;;;;;5055301;28;20045;-52
2022/07/17 03:48:47;;;;;;;4.10;3.30;;;12.40;99.90;;;;;;5057152;28;20052;-52
2022/07/17 03:51:14;;;;;;;4.13;2.78;;;12.40;99.90;;;;;;5057528;28;20052;-53
2022/07/17 03:53:41;;;;;;;7.35;3.20;;;12.40;99.90;;;;;;5057952;28;20587;-52
2022/07/17 03:56:08;;;;;;;;;;;12.40;99.90;;;;;;5057805;28;20041;-53
2022/07/17 03:58:34;;;;;;;4.18;3.17;;;12.40;99.90;;;;;;5056846;28;19994;-53
2022/07/17 04:01:02;;;;;;;;;;;12.40;99.90;;;;;;5057803;28;20904;-51
2022/07/17 04:03:29;;;;;;;3.30;3.00;;;12.40;99.90;;;;;;5039455;28;19952;-51
2022/07/17 04:05:55;;;;;;;;;;;12.40;99.90;;;;;;5058081;28;20459;-52
2022/07/17 04:08:22;;;;;;;8.05;3.13;;;12.40;99.90;;;;;;5057259;28;19924;-52
2022/07/17 04:10:49;;;;;;;;;;;12.40;99.90;;;;;;5040348;28;20511;-52
2022/07/17 04:13:16;;;;;;;5.65;3.55;;;12.40;99.90;;;;;;5034558;28;19932;-53
2022/07/17 04:15:49;;;;;;;4.47;3.25;;;12.40;99.90;;;;;;5036396;28;21007;-51
2022/07/17 04:18:17;;;;;;;5.47;3.38;;;12.40;99.90;;;;;;5035099;28;20114;-52
2022/07/17 04:20:44;;;;;;;6.00;3.20;;;12.40;99.90;;;;;;5048870;28;20112;-52
2022/07/17 04:23:11;;;;;;;4.68;3.15;;;12.40;99.90;;;;;;5036333;28;20068;-52
2022/07/17 04:25:37;;;;;;;;;;;12.40;99.90;;;;;;5056533;28;20075;-52
2022/07/17 04:28:05;;;;;;;7.53;3.72;;;12.40;99.90;;;;;;5056543;28;19932;-53
2022/07/17 04:30:31;;;;;;;;;;;12.40;99.90;;;;;;5045109;28;20106;-50
2022/07/17 04:32:58;;;;;;;5.78;3.42;;;12.50;99.90;;;;;;5037196;28;19924;-53
2022/07/17 04:35:25;;;;;;;;;;;12.50;99.90;;;;;;5055876;28;20037;-52
2022/07/17 04:37:52;;;;;;;4.07;3.63;;;12.60;99.90;;;;;;5037727;28;19926;-52
2022/07/17 04:40:19;;;;;;;4.30;3.00;;;12.60;99.90;;;;;;5055176;28;20119;-51
2022/07/17 04:42:46;;;;;;;;;;;12.70;99.90;;;;;;5056588;28;20118;-53
2022/07/17 04:45:15;;;;;;;4.30;3.22;;;12.70;99.90;;;;;;5053594;28;19928;-52
2022/07/17 04:47:42;;;;;;;6.38;3.28;;;12.80;99.90;;;;;;5034969;28;20048;-52
2022/07/17 04:50:09;;;;;;;;;;;12.80;99.90;;;;;;5019109;28;20041;-53
2022/07/17 04:52:36;;;;;;;5.50;3.27;;;12.90;99.90;;;;;;5035567;28;19925;-52
2022/07/17 04:55:04;;;;;;;4.72;3.33;;;13.00;99.90;;;;;;5034930;28;20103;-51
2022/07/17 04:57:31;;;;;;;4.40;3.05;;;13.00;99.90;;;;;;5025573;28;20048;-54
2022/07/17 04:59:57;;;;;;;;;;;13.10;99.90;;;;;;5056179;28;20063;-53
2022/07/17 05:02:24;;;;;;;6.78;3.25;;;13.20;99.90;;;;;;5054974;28;19959;-53
2022/07/17 05:04:51;;;;;;;6.28;3.35;;;13.20;99.90;;;;;;5054151;28;20527;-49
2022/07/17 05:07:18;;;;;;;3.83;3.42;;;13.30;99.90;;;;;;5055306;28;20050;-52
2022/07/17 05:09:45;;;;;;;8.73;3.30;;;13.30;99.90;;;;;;5045056;28;20041;-52
2022/07/17 05:12:12;;;;;;;7.10;3.28;;;13.40;99.90;;;;;;5047577;28;20136;-53
2022/07/17 05:14:39;;;;;;;11.52;3.75;;;13.40;99.90;;;;;;4998233;28;1062409;-51
2022/07/17 05:17:06;;;;;;;5.53;2.78;;;13.50;99.90;;;;;;5035236;28;20119;-52
2022/07/17 05:19:33;;;;;;;;;;;13.50;99.90;;;;;;5036346;28;20065;-48
2022/07/17 05:21:59;;;;;;;3.95;3.10;;;13.60;99.90;;;;;;5050984;28;20738;-48
2022/07/17 05:24:26;;;;;;;;;;;13.70;99.90;;;;;;5055745;28;20051;-47
2022/07/17 05:26:53;;;;;;;4.90;3.40;;;13.80;99.90;;;;;;5056140;28;19924;-47
2022/07/17 05:29:20;;;;;;;5.78;4.13;;;13.80;99.90;;;;;;5056157;28;20052;-50
2022/07/17 05:31:47;;;;;;;7.47;2.80;;;13.90;99.90;;;;;;5055062;28;20462;-50
2022/07/17 05:34:14;;;;;;;5.05;3.42;;;14.00;99.90;;;;;;5054884;28;20513;-49
2022/07/17 05:36:41;;;;;;;3.83;2.83;;;14.00;99.90;;;;;;5055480;28;20044;-49
2022/07/17 05:39:08;;;;;;;7.45;2.97;;;14.20;99.90;;;;;;5055926;28;20033;-48
2022/07/17 05:41:35;;;;;;;3.72;3.33;;;14.30;99.90;;;;;;5055193;28;20127;-50
2022/07/17 05:44:02;;;;;;;;;;;14.40;99.90;;;;;;5055797;28;20818;-49
2022/07/17 05:46:29;;;;;;;6.45;3.53;;;14.50;99.90;;;;;;5035250;28;19947;-49
2022/07/17 05:48:55;;;;;;;6.28;3.03;;;14.50;99.90;;;;;;5054677;28;20094;-47
2022/07/17 05:51:22;;;;;;;;;;;14.60;99.90;;;;;;5056100;28;20679;-49
2022/07/17 05:53:51;;;;;;;7.35;3.30;;;14.70;99.90;;;;;;5054452;28;20041;-48
2022/07/17 05:56:18;;;;;;;7.50;3.40;;;14.70;99.90;;;;;;5037109;28;20040;-50
2022/07/17 05:58:45;;;;;;;5.50;3.60;;;14.80;99.90;;;;;;5053715;28;20049;-47
2022/07/17 06:01:11;;;;;;;;;;;14.90;99.90;;;;;;5056134;28;20630;-48
2022/07/17 06:03:38;;;;;;;5.78;2.95;;;15.00;99.90;;;;;;5054224;28;19928;-49
2022/07/17 06:06:06;;;;;;;;;;;15.10;99.90;;;;;;5055563;28;20046;-47
2022/07/17 06:08:33;;;;;;;10.02;3.60;;;15.30;99.90;;;;;;5036952;28;20409;-48
2022/07/17 06:11:00;;;;;;;5.75;3.33;;;15.40;99.90;;;;;;5037302;28;20037;-49
2022/07/17 06:13:26;;;;;;;;;;;15.50;99.90;;;;;;5046065;28;20037;-46
2022/07/17 06:15:55;;;;;;;6.35;3.30;;;15.70;99.90;;;;;;5034643;28;19925;-49
2022/07/17 06:18:24;;;;;;;5.05;3.85;;;15.80;99.90;;;;;;5035369;28;20047;-48
2022/07/17 06:20:50;;;;;;;6.30;3.65;;;16.00;99.90;;;;;;5033292;28;20118;-62
2022/07/17 06:23:17;;;;;;;;;;;16.10;99.90;;;;;;5034420;28;20047;-60
2022/07/17 06:25:44;;;;;;;4.20;3.33;;;16.20;99.90;;;;;;5054389;28;19935;-62
2022/07/17 06:28:11;;;;;;;5.53;3.17;;;16.30;99.90;;;;;;5055163;28;20555;-59
2022/07/17 06:30:38;;;;;;;5.63;3.33;;;16.50;99.90;;;;;;5040603;28;20596;-60
2022/07/17 06:33:05;;;;;;;4.68;3.10;;;16.60;99.90;;;;;;5033751;28;20088;-62
2022/07/17 06:35:33;;;;;;;;;;;16.70;99.90;;;;;;5034754;28;20045;-60
2022/07/17 06:38:02;;;;;;;6.47;3.47;;;16.90;99.90;;;;;;5034452;28;19925;-62
2022/07/17 06:40:29;;;;;;;4.25;3.53;;;17.00;99.90;;;;;;5034985;28;20102;-60
2022/07/17 06:42:56;;;;;;;5.80;3.67;;;17.10;99.90;;;;;;5032311;28;20052;-62
2022/07/17 06:45:23;;;;;;;;;;;17.20;99.90;;;;;;5035460;28;20053;-61
2022/07/17 06:47:50;;;;;;;3.75;3.22;;;17.30;99.90;;;;;;5046013;28;19932;-62
2022/07/17 06:50:16;;;;;;;;;;;17.40;99.90;;;;;;5054751;28;20050;-58
2022/07/17 06:52:43;;;;;;;4.38;3.80;;;17.50;99.90;;;;;;5036597;28;19925;-61
2022/07/17 06:55:13;;;;;;;9.55;3.75;;;17.60;99.90;;;;;;5054191;28;20530;-61
2022/07/17 06:57:40;;;;;;;4.70;3.72;;;17.80;99.90;;;;;;5053805;28;20754;-59
2022/07/17 07:00:08;;;;;;;5.82;3.83;;;17.90;99.90;;;;;;5052498;28;20128;-63
2022/07/17 07:02:37;;;;;;;4.88;3.55;;;18.00;99.90;;;;;;5053163;28;20039;-63
2022/07/17 07:05:04;;;;;;;10.98;4.70;;;18.10;99.90;;;;;;5053870;28;20692;-64
2022/07/17 07:07:31;;;;;;;7.68;3.90;;;18.20;99.90;;;;;;5054293;28;20110;-61
2022/07/17 07:09:58;;;;;;;;;;;18.30;99.90;;;;;;5048526;28;20045;-61
2022/07/17 07:12:24;;;;;;;5.25;4.00;;;18.50;99.90;;;;;;5049748;28;20371;-61
2022/07/17 07:14:51;;;;;;;;;;;18.50;99.90;;;;;;5035633;28;20203;-62
2022/07/17 07:17:18;;;;;;;6.57;2.95;;;18.60;99.90;;;;;;5034104;28;19955;-59
2022/07/17 07:19:45;;;;;;;5.93;3.92;;;18.70;99.90;;;;;;5034680;28;20047;-61
2022/07/17 07:22:12;;;;;;;6.63;3.67;;;18.80;99.90;;;;;;5033934;28;20041;-60
2022/07/17 07:24:38;;;;;;;;;;;19.00;99.90;;;;;;5052341;28;20076;-60
2022/07/17 07:27:05;;;;;;;7.22;3.97;;;19.20;99.90;;;;;;5038579;28;20800;-62
2022/07/17 07:29:32;;;;;;;9.43;4.10;;;19.30;99.90;;;;;;5038868;28;20136;-62
2022/07/17 07:31:59;;;;;;;;;;;19.50;99.90;;;;;;5054090;28;20044;-61
2022/07/17 07:34:26;;;;;;;4.97;3.43;;;19.70;99.90;;;;;;5053531;28;20579;-61
2022/07/17 07:36:53;;;;;;;7.53;4.57;;;19.80;99.90;;;;;;5054046;28;20062;-61
2022/07/17 07:39:20;;;;;;;4.20;2.97;;;19.90;99.90;;;;;;5053875;28;20040;-61
2022/07/17 07:41:47;;;;;;;5.72;3.40;;;20.00;99.90;;;;;;5054318;28;20079;-60
2022/07/17 07:44:14;;;;;;;9.18;3.60;;;20.10;99.90;;;;;;5051752;28;20041;-61
2022/07/17 07:46:51;;;;;;;8.00;4.20;;;20.20;99.90;;;;;;5039802;28;20044;-59
2022/07/17 07:49:18;;;;;;;5.65;4.07;;;20.20;99.90;;;;;;5032040;28;20042;-61
2022/07/17 07:51:45;;;;;;;5.85;3.58;;;20.30;99.90;;;;;;5033761;28;20659;-61
2022/07/17 07:54:30;;;;;;;9.30;4.50;;;20.30;99.90;;;;;;5033772;28;20041;-60
2022/07/17 07:56:57;;;;;;;4.72;3.45;;;20.30;99.90;;;;;;5034870;28;20532;-61
2022/07/17 07:59:23;;;;;;;7.75;4.00;;;20.40;99.90;;;;;;5037646;28;20099;-61
2022/07/17 08:01:50;;;;;;;5.85;3.47;;;20.40;99.90;;;;;;5037458;28;20041;-61
2022/07/17 08:04:17;;;;;;;4.47;3.85;;;20.50;99.90;;;;;;5035445;28;20048;-60
2022/07/17 08:06:44;;;;;;;4.72;3.55;;;20.60;99.90;;;;;;5019039;28;20049;-63
2022/07/17 08:09:11;;;;;;;5.03;3.67;;;20.70;99.90;;;;;;5042175;28;20055;-60
2022/07/17 08:11:38;;;;;;;6.38;3.40;;;20.80;99.90;;;;;;5047260;28;20053;-62
2022/07/17 08:14:05;;;;;;;6.15;3.67;;;21.00;99.90;;;;;;5036854;28;20045;-61
2022/07/17 08:16:42;;;;;;;6.25;3.97;;;21.20;99.90;;;;;;5037356;28;20102;-61
2022/07/17 08:19:09;;;;;;;5.78;3.50;;;21.40;99.90;;;;;;5018765;28;20098;-59
2022/07/17 08:21:36;;;;;;;10.95;3.97;;;21.60;99.90;;;;;;5037383;28;20500;-59
2022/07/17 08:24:04;;;;;;;12.70;3.42;;;22.00;99.90;;;;;;5044047;28;20500;-61
2022/07/17 08:26:31;;;;;;;4.75;3.75;;;22.40;99.90;;;;;;5056596;28;20128;-61
2022/07/17 08:28:58;;;;;;;6.55;3.13;;;22.90;99.90;;;;;;5056798;28;20040;-62
2022/07/17 08:31:25;;;;;;;6.32;3.10;;;23.30;96.20;;;;;;5035623;28;20076;-62
2022/07/17 08:33:52;;;;;;;4.47;3.00;;;23.60;90.60;;;;;;5036188;28;20490;-63
2022/07/17 08:36:19;;;;;;;8.93;3.25;;;23.90;89.90;;;;;;5036981;28;20061;-63
2022/07/17 08:38:46;;;;;;;4.47;3.10;;;24.10;83.50;;;;;;5036815;28;20489;-62
2022/07/17 08:41:17;;;;;;;8.02;2.97;;;24.40;84.00;;;;;;5034472;28;20045;-61
2022/07/17 08:43:47;;;;;;;4.25;2.80;;;24.60;77.40;;;;;;5036774;28;20047;-61
2022/07/17 08:46:15;;;;;;;5.32;3.60;;;24.90;73.90;;;;;;5045878;28;20052;-63
2022/07/17 08:48:46;;;;;;;6.15;3.50;;;25.20;71.40;;;;;;5054056;28;20055;-63
2022/07/17 08:51:16;;;;;;;8.77;2.65;;;25.40;69.10;;;;;;5054984;28;20048;-63
2022/07/17 08:53:44;;;;;;;7.28;3.10;;;25.60;65.40;;;;;;5049437;28;20051;-64
2022/07/17 08:56:11;;;;;;;4.45;2.90;;;25.80;66.90;;;;;;5056708;28;20884;-64
2022/07/17 08:58:38;;;;;;;5.30;3.05;;;26.00;65.70;;;;;;5049446;28;20068;-64
2022/07/17 09:01:06;;;;;;;6.57;3.17;;;26.20;65.40;;;;;;5039762;28;20049;-62
2022/07/17 09:03:33;;;;;;;3.95;3.10;;;26.20;66.50;;;;;;5056092;28;20172;-63
2022/07/17 09:06:21;;;;;;;5.07;2.95;;;26.40;62.50;;;;;;5057003;28;20588;-61
2022/07/17 09:08:59;;;;;;;5.93;3.22;;;26.50;61.80;;;;;;5054713;28;20605;-65
2022/07/17 09:11:28;;;;;;;6.30;3.00;;;26.60;59.90;;;;;;5040732;28;20036;-62
2022/07/17 09:13:56;;;;;;;5.30;3.38;;;26.70;62.20;;;;;;5041589;28;20041;-61
2022/07/17 09:16:23;;;;;;;6.18;2.85;;;26.80;59.20;;;;;;5036956;28;20068;-61
2022/07/17 09:18:53;;;;;;;4.93;2.78;;;26.90;59.10;;;;;;5017899;28;20041;-61
2022/07/17 09:21:26;;;;;;;5.75;2.67;;;27.00;57.80;;;;;;5018995;28;20076;-62
2022/07/17 09:24:02;;;;;;;4.32;2.75;;;27.10;57.10;;;;;;5001655;28;20048;-62
2022/07/17 09:26:30;;;;;;;4.88;2.90;;;27.10;54.30;;;;;;5049413;28;20963;-63
2022/07/17 09:29:00;;;;;;;6.57;3.40;;;27.10;54.60;;;;;;5056788;28;20449;-61
2022/07/17 09:31:31;;;;;;;4.80;2.53;;;27.10;54.80;;;;;;5036325;28;20128;-66
2022/07/17 09:33:59;;;;;;;4.22;2.53;;;27.20;55.10;;;;;;5017725;28;20602;-62
2022/07/17 09:36:26;;;;;;;9.23;3.20;;;27.30;55.70;;;;;;5035894;28;20519;-65
2022/07/17 09:38:56;;;;;;;6.05;2.75;;;27.40;56.10;;;;;;5036158;28;20056;-62
2022/07/17 09:41:25;;;;;;;10.18;2.95;;;27.50;54.50;;;;;;5034564;28;20051;-65
2022/07/17 09:43:59;;;;;;;2.97;2.72;;;27.60;52.80;;;;;;5035936;28;20037;-63
2022/07/17 09:46:33;;;;;;;3.70;2.88;;;27.70;52.70;;;;;;5046051;28;20114;-62
2022/07/17 09:49:04;;;;;;;5.38;2.63;;;27.70;53.40;;;;;;5056443;28;20044;-60
2022/07/17 09:51:34;;;;;;;10.98;3.15;;;27.80;55.30;;;;;;5056156;28;20789;-60
2022/07/17 09:54:03;;;;;;;6.60;2.53;;;27.90;54.40;;;;;;5053412;28;20049;-60
2022/07/17 09:56:33;;;;;;;11.30;3.38;;;28.10;52.10;;;;;;5036597;28;20272;-62
2022/07/17 09:59:04;;;;;;;11.48;3.10;;;28.10;50.80;;;;;;5055173;28;20127;-61
2022/07/17 10:01:32;;;;;;;4.70;3.13;;;28.10;50.00;;;;;;5056292;28;20574;-60
2022/07/17 10:04:02;;;;;;;3.40;2.78;;;28.10;49.00;;;;;;5053337;28;20048;-61
2022/07/17 10:06:29;;;;;;;3.33;2.53;;;28.10;50.20;;;;;;5054246;28;20048;-61
2022/07/17 10:08:58;;;;;;;2.65;2.20;;;28.10;50.30;;;;;;5052342;28;20653;-60
2022/07/17 10:11:39;;;;;;;5.28;2.50;;;28.20;49.60;;;;;;5042904;28;20037;-61
2022/07/17 10:14:15;;;;;;;4.28;2.95;;;28.40;48.20;;;;;;5040145;28;20444;-61
2022/07/17 10:16:45;;;;;;;3.78;2.53;;;28.60;48.90;;;;;;5035631;28;20124;-60
2022/07/17 10:19:24;;;;;;;4.30;2.45;;;28.60;48.00;;;;;;5034958;28;20045;-61
2022/07/17 10:21:58;;;;;;;3.30;2.30;;;28.70;47.50;;;;;;5033423;28;20702;-62
2022/07/17 10:24:26;;;;;;;6.50;2.42;;;28.60;46.70;;;;;;5035834;28;20116;-61
2022/07/17 10:26:54;;;;;;;6.30;2.28;;;28.50;49.40;;;;;;5046964;28;20798;-61
2022/07/17 10:29:35;;;;;;;3.75;2.10;;;28.50;50.00;;;;;;5054599;28;20043;-61
2022/07/17 10:32:07;;;;;;;5.40;2.13;;;28.60;48.30;;;;;;5055155;28;20040;-60
2022/07/17 10:34:39;;;;;;;4.25;2.40;;;28.50;48.00;;;;;;5054724;28;20044;-59
2022/07/17 10:37:14;;;;;;;7.55;2.35;;;28.50;48.70;;;;;;5054399;28;20047;-61
2022/07/17 10:40:04;;;;;;;3.75;2.30;;;28.50;48.40;;;;;;5055480;28;20051;-60
2022/07/17 10:42:50;;;;;;;4.78;2.17;;;28.50;48.30;;;;;;5054579;28;20056;-59
2022/07/17 10:45:28;;;;;;;3.60;2.35;;;28.60;47.70;;;;;;5053164;28;20045;-62
2022/07/17 10:47:58;;;;;;;3.70;2.20;;;28.60;48.30;;;;;;5045631;28;20794;-64
2022/07/17 10:50:27;;;;;;;7.47;2.30;;;28.70;47.50;;;;;;5054970;28;20106;-62
2022/07/17 10:53:23;;;;;;;2.45;2.13;;;28.70;48.20;;;;;;5036724;28;20052;-61
2022/07/17 10:55:57;;;;;;;3.73;2.33;;;28.70;48.50;;;;;;5036737;28;20112;-62
2022/07/17 10:58:37;;;;;;;8.00;1.92;;;28.80;45.90;;;;;;5054342;28;20461;-62
2022/07/17 11:01:12;;;;;;;3.70;2.03;;;28.90;48.30;;;;;;5053820;28;20604;-62
2022/07/17 11:03:46;;;;;;;4.07;2.40;;;28.90;47.10;;;;;;5054713;28;20119;-61
2022/07/17 11:06:18;;;;;;;2.38;2.05;;;28.90;47.90;;;;;;5052075;28;20060;-62
2022/07/17 11:09:00;;;;;;;3.88;2.30;;;29.00;48.00;;;;;;5053043;28;20048;-60
2022/07/17 11:11:45;;;;;;;2.63;2.30;;;29.10;46.40;;;;;;5041255;28;20055;-62
2022/07/17 11:14:21;;;;;;;2.90;1.95;;;29.10;45.00;;;;;;5021118;28;20053;-61
2022/07/17 11:16:50;;;;;;;7.88;2.72;;;29.10;46.60;;;;;;5015348;28;20041;-61
2022/07/17 11:19:41;;;;;;;2.72;2.00;;;29.10;47.00;;;;;;5034229;28;20045;-62
2022/07/17 11:22:11;;;;;;;3.03;1.83;;;29.00;47.60;;;;;;5034053;28;20044;-62
2022/07/17 11:24:43;;;;;;;4.43;2.03;;;29.10;44.90;;;;;;5034157;28;20044;-60
2022/07/17 11:27:13;;;;;;;7.63;2.63;;;29.20;46.40;;;;;;5041906;28;20041;-62
2022/07/17 11:29:40;;;;;;;5.07;1.98;;;29.30;46.40;;;;;;5033931;28;20131;-62
2022/07/17 11:32:07;;;;;;;3.03;2.05;;;29.40;47.30;;;;;;5036654;28;20520;-61
2022/07/17 11:34:34;;;;;;;3.47;2.25;;;29.40;46.20;;;;;;5035436;28;20041;-62
2022/07/17 11:37:05;;;;;;;4.88;2.05;;;29.60;46.10;;;;;;5037190;28;20774;-62
2022/07/17 11:39:45;;;;;;;2.90;2.30;;;29.60;44.60;;;;;;5036783;28;20045;-62
2022/07/17 11:42:21;;;;;;;3.97;2.22;;;29.70;45.70;;;;;;5056877;28;20086;-60
2022/07/17 11:44:53;;;;;;;3.90;2.30;;;29.70;45.50;;;;;;5056339;28;20048;-60
2022/07/17 11:47:26;;;;;;;17.38;2.40;;;29.80;44.70;;;;;;5020639;28;20055;-61
2022/07/17 11:50:05;;;;;;;1.83;1.65;;;29.80;43.00;;;;;;5036854;28;20041;-61
2022/07/17 11:52:43;;;;;;;3.10;2.42;;;29.90;44.00;;;;;;5036883;28;20049;-61
2022/07/17 11:55:11;;;;;;;10.38;2.40;;;30.10;44.50;;;;;;5036576;28;20071;-62
2022/07/17 11:57:44;;;;;;;3.58;2.15;;;30.10;44.50;;;;;;5034872;28;20037;-62
2022/07/17 12:00:13;;;;;;;5.88;2.45;;;30.00;43.40;;;;;;5036915;28;20045;-60
2022/07/17 12:02:40;;;;;;;5.28;2.13;;;30.00;45.00;;;;;;5035762;28;20107;-62
2022/07/17 12:05:07;;;;;;;3.08;2.00;;;30.00;44.60;;;;;;5036641;28;20045;-60
2022/07/17 12:07:47;;;;;;;2.97;2.25;;;30.00;45.20;;;;;;5040253;28;20041;-61
2022/07/17 12:10:22;;;;;;;4.10;2.15;;;30.00;43.90;;;;;;5048876;28;20842;-60
2022/07/17 12:12:59;;;;;;;3.38;2.20;;;30.00;44.20;;;;;;5020915;28;20270;-62
2022/07/17 12:15:41;;;;;;;3.08;2.50;;;30.20;44.20;;;;;;5053951;28;20090;-62
2022/07/17 12:18:29;;;;;;;3.00;2.17;;;30.30;43.60;;;;;;5054365;28;20033;-62
2022/07/17 12:21:02;;;;;;;3.03;1.80;;;30.50;45.00;;;;;;5038160;28;20040;-62
2022/07/17 12:23:36;;;;;;;4.38;2.00;;;30.70;45.30;;;;;;5035831;28;20056;-60
2022/07/17 12:26:11;;;;;;;6.90;2.13;;;30.70;43.70;;;;;;5045949;28;20060;-62
2022/07/17 12:28:39;;;;;;;3.80;2.17;;;30.80;43.50;;;;;;5055030;28;20040;-62
2022/07/17 12:31:10;;;;;;;4.38;2.00;;;30.80;43.10;;;;;;5051953;28;20076;-62
2022/07/17 12:33:38;;;;;;;5.15;2.40;;;30.80;43.80;;;;;;5037613;28;20106;-62
2022/07/17 12:36:05;;;;;;;8.07;2.58;;;30.70;42.10;;;;;;5055824;28;20120;-61
2022/07/17 12:38:32;;;;;;;9.05;2.40;;;30.60;42.40;;;;;;5055750;28;20098;-62
2022/07/17 12:40:59;;;;;;;8.27;2.60;;;30.70;43.00;;;;;;5056296;28;20033;-60
2022/07/17 12:43:26;;;;;;;2.40;2.08;;;30.90;43.70;;;;;;5055580;28;20082;-60
2022/07/17 12:45:53;;;;;;;3.08;2.10;;;31.00;43.10;;;;;;5055707;28;20459;-62
2022/07/17 12:48:22;;;;;;;2.80;2.17;;;31.10;43.70;;;;;;5055693;28;20060;-61
2022/07/17 12:50:49;;;;;;;4.47;3.33;;;31.10;42.20;;;;;;5055924;28;20064;-58
2022/07/17 12:53:16;;;;;;;2.72;1.98;;;31.20;42.40;;;;;;5054096;28;20426;-62
2022/07/17 12:55:42;;;;;;;4.55;2.30;;;31.20;42.50;;;;;;5054841;28;20036;-61
2022/07/17 12:58:09;;;;;;;8.75;2.20;;;31.50;43.20;;;;;;5043945;28;20154;-62
2022/07/17 13:00:36;;;;;;;2.40;2.20;;;31.50;42.40;;;;;;5018096;28;20041;-61
2022/07/17 13:03:04;;;;;;;3.83;2.20;;;31.50;40.10;;;;;;5035239;28;20045;-60
2022/07/17 13:05:31;;;;;;;6.50;2.25;;;31.60;41.70;;;;;;5035755;28;20562;-61